sensor_id;sensor_type;location;lat;lon;timestamp;temperature;humidity
7900;DHT22;3995;50.856;4.404;2023-07-13T00:02:07;22.50;50.80
7900;DHT22;3995;50.856;4.404;2023-07-13T00:04:36;22.50;51.00
7900;DHT22;3995;50.856;4.404;2023-07-13T00:07:04;22.50;51.00
7900;DHT22;3995;50.856;4.404;2023-07-13T00:09:31;22.50;51.10
7900;DHT22;3995;50.856;4.404;2023-07-13T00:12:01;22.50;51.20
7900;DHT22;3995;50.856;4.404;2023-07-13T00:14:29;22.40;51.20
7900;DHT22;3995;50.856;4.404;2023-07-13T00:16:56;22.40;51.40
7900;DHT22;3995;50.856;4.404;2023-07-13T00:19:26;22.40;51.50
7900;DHT22;3995;50.856;4.404;2023-07-13T00:21:55;22.40;51.50
7900;DHT22;3995;50.856;4.404;2023-07-13T00:24:23;22.40;51.60
7900;DHT22;3995;50.856;4.404;2023-07-13T00:26:50;22.40;51.70
7900;DHT22;3995;50.856;4.404;2023-07-13T00:29:17;22.40;51.90
7900;DHT22;3995;50.856;4.404;2023-07-13T00:31:46;22.30;51.80
7900;DHT22;3995;50.856;4.404;2023-07-13T00:34:13;22.30;51.90
7900;DHT22;3995;50.856;4.404;2023-07-13T00:36:41;22.30;52.10
7900;DHT22;3995;50.856;4.404;2023-07-13T00:39:13;22.30;52.20
7900;DHT22;3995;50.856;4.404;2023-07-13T00:41:40;22.30;52.20
7900;DHT22;3995;50.856;4.404;2023-07-13T00:44:13;22.20;52.20
7900;DHT22;3995;50.856;4.404;2023-07-13T00:46:41;22.20;52.20
7900;DHT22;3995;50.856;4.404;2023-07-13T00:49:12;22.20;52.40
7900;DHT22;3995;50.856;4.404;2023-07-13T00:51:44;22.20;52.50
7900;DHT22;3995;50.856;4.404;2023-07-13T00:54:18;22.10;52.50
7900;DHT22;3995;50.856;4.404;2023-07-13T00:56:49;22.10;52.60
7900;DHT22;3995;50.856;4.404;2023-07-13T00:59:19;22.10;52.70
7900;DHT22;3995;50.856;4.404;2023-07-13T01:01:48;22.10;52.70
7900;DHT22;3995;50.856;4.404;2023-07-13T01:04:16;22.10;52.70
7900;DHT22;3995;50.856;4.404;2023-07-13T01:06:44;22.10;52.70
7900;DHT22;3995;50.856;4.404;2023-07-13T01:09:14;22.10;52.80
7900;DHT22;3995;50.856;4.404;2023-07-13T01:11:43;22.00;52.80
7900;DHT22;3995;50.856;4.404;2023-07-13T01:14:11;22.00;53.00
7900;DHT22;3995;50.856;4.404;2023-07-13T01:16:41;22.00;53.00
7900;DHT22;3995;50.856;4.404;2023-07-13T01:19:17;21.90;53.00
7900;DHT22;3995;50.856;4.404;2023-07-13T01:21:52;21.90;53.00
7900;DHT22;3995;50.856;4.404;2023-07-13T01:24:20;21.90;53.20
7900;DHT22;3995;50.856;4.404;2023-07-13T01:26:48;21.90;53.20
7900;DHT22;3995;50.856;4.404;2023-07-13T01:29:15;21.90;53.20
7900;DHT22;3995;50.856;4.404;2023-07-13T01:31:43;21.90;53.20
7900;DHT22;3995;50.856;4.404;2023-07-13T01:34:10;21.90;53.20
7900;DHT22;3995;50.856;4.404;2023-07-13T01:36:38;21.90;53.30
7900;DHT22;3995;50.856;4.404;2023-07-13T01:39:07;21.80;53.30
7900;DHT22;3995;50.856;4.404;2023-07-13T01:41:34;21.80;53.40
7900;DHT22;3995;50.856;4.404;2023-07-13T01:44:01;21.80;53.50
7900;DHT22;3995;50.856;4.404;2023-07-13T01:46:28;21.80;53.60
7900;DHT22;3995;50.856;4.404;2023-07-13T01:48:56;21.70;53.60
7900;DHT22;3995;50.856;4.404;2023-07-13T01:51:24;21.80;53.70
7900;DHT22;3995;50.856;4.404;2023-07-13T01:53:52;21.80;53.70
7900;DHT22;3995;50.856;4.404;2023-07-13T01:56:22;21.80;53.80
7900;DHT22;3995;50.856;4.404;2023-07-13T01:58:49;21.70;53.80
7900;DHT22;3995;50.856;4.404;2023-07-13T02:01:16;21.70;53.90
7900;DHT22;3995;50.856;4.404;2023-07-13T02:03:44;21.70;54.00
7900;DHT22;3995;50.856;4.404;2023-07-13T02:06:12;21.70;54.10
7900;DHT22;3995;50.856;4.404;2023-07-13T02:08:40;21.70;54.10
7900;DHT22;3995;50.856;4.404;2023-07-13T02:11:08;21.70;54.20
7900;DHT22;3995;50.856;4.404;2023-07-13T02:13:38;21.60;54.10
7900;DHT22;3995;50.856;4.404;2023-07-13T02:16:06;21.60;54.20
7900;DHT22;3995;50.856;4.404;2023-07-13T02:18:33;21.60;54.30
7900;DHT22;3995;50.856;4.404;2023-07-13T02:21:01;21.60;54.40
7900;DHT22;3995;50.856;4.404;2023-07-13T02:23:29;21.60;54.50
7900;DHT22;3995;50.856;4.404;2023-07-13T02:25:56;21.50;54.50
7900;DHT22;3995;50.856;4.404;2023-07-13T02:28:24;21.50;54.50
7900;DHT22;3995;50.856;4.404;2023-07-13T02:30:53;21.50;54.60
7900;DHT22;3995;50.856;4.404;2023-07-13T02:33:20;21.50;54.70
7900;DHT22;3995;50.856;4.404;2023-07-13T02:35:48;21.50;54.80
7900;DHT22;3995;50.856;4.404;2023-07-13T02:38:15;21.40;54.80
7900;DHT22;3995;50.856;4.404;2023-07-13T02:40:42;21.40;54.90
7900;DHT22;3995;50.856;4.404;2023-07-13T02:43:10;21.40;55.00
7900;DHT22;3995;50.856;4.404;2023-07-13T02:45:37;21.40;55.10
7900;DHT22;3995;50.856;4.404;2023-07-13T02:48:06;21.40;55.10
7900;DHT22;3995;50.856;4.404;2023-07-13T02:50:33;21.40;55.10
7900;DHT22;3995;50.856;4.404;2023-07-13T02:53:01;21.40;55.20
7900;DHT22;3995;50.856;4.404;2023-07-13T02:55:29;21.30;55.20
7900;DHT22;3995;50.856;4.404;2023-07-13T02:57:56;21.30;55.30
7900;DHT22;3995;50.856;4.404;2023-07-13T03:00:24;21.30;55.30
7900;DHT22;3995;50.856;4.404;2023-07-13T03:02:51;21.30;55.30
7900;DHT22;3995;50.856;4.404;2023-07-13T03:05:20;21.30;55.30
7900;DHT22;3995;50.856;4.404;2023-07-13T03:07:48;21.40;55.50
7900;DHT22;3995;50.856;4.404;2023-07-13T03:10:15;21.30;55.40
7900;DHT22;3995;50.856;4.404;2023-07-13T03:12:43;21.30;55.50
7900;DHT22;3995;50.856;4.404;2023-07-13T03:15:11;21.30;55.60
7900;DHT22;3995;50.856;4.404;2023-07-13T03:17:38;21.30;55.60
7900;DHT22;3995;50.856;4.404;2023-07-13T03:20:07;21.30;55.60
7900;DHT22;3995;50.856;4.404;2023-07-13T03:22:36;21.30;55.60
7900;DHT22;3995;50.856;4.404;2023-07-13T03:25:04;21.30;55.80
7900;DHT22;3995;50.856;4.404;2023-07-13T03:27:32;21.20;55.80
7900;DHT22;3995;50.856;4.404;2023-07-13T03:29:59;21.20;55.80
7900;DHT22;3995;50.856;4.404;2023-07-13T03:32:27;21.20;55.90
7900;DHT22;3995;50.856;4.404;2023-07-13T03:34:54;21.20;56.00
7900;DHT22;3995;50.856;4.404;2023-07-13T03:37:21;21.10;56.00
7900;DHT22;3995;50.856;4.404;2023-07-13T03:39:51;21.10;56.00
7900;DHT22;3995;50.856;4.404;2023-07-13T03:42:18;21.10;56.20
7900;DHT22;3995;50.856;4.404;2023-07-13T03:44:46;21.10;56.30
7900;DHT22;3995;50.856;4.404;2023-07-13T03:47:18;21.10;56.30
7900;DHT22;3995;50.856;4.404;2023-07-13T03:49:45;21.10;56.40
7900;DHT22;3995;50.856;4.404;2023-07-13T03:52:12;21.10;56.50
7900;DHT22;3995;50.856;4.404;2023-07-13T03:54:40;21.10;56.60
7900;DHT22;3995;50.856;4.404;2023-07-13T03:57:09;21.10;56.60
7900;DHT22;3995;50.856;4.404;2023-07-13T03:59:37;21.10;56.70
7900;DHT22;3995;50.856;4.404;2023-07-13T04:02:04;21.00;56.70
7900;DHT22;3995;50.856;4.404;2023-07-13T04:04:32;21.00;56.70
7900;DHT22;3995;50.856;4.404;2023-07-13T04:06:59;21.00;56.80
7900;DHT22;3995;50.856;4.404;2023-07-13T04:09:26;21.00;56.90
7900;DHT22;3995;50.856;4.404;2023-07-13T04:11:53;21.00;56.90
7900;DHT22;3995;50.856;4.404;2023-07-13T04:14:23;21.00;56.90
7900;DHT22;3995;50.856;4.404;2023-07-13T04:16:50;21.00;57.00
7900;DHT22;3995;50.856;4.404;2023-07-13T04:19:20;21.00;57.10
7900;DHT22;3995;50.856;4.404;2023-07-13T04:21:48;21.00;57.10
7900;DHT22;3995;50.856;4.404;2023-07-13T04:24:16;21.10;57.20
7900;DHT22;3995;50.856;4.404;2023-07-13T04:26:44;21.10;57.30
7900;DHT22;3995;50.856;4.404;2023-07-13T04:29:12;21.10;57.30
7900;DHT22;3995;50.856;4.404;2023-07-13T04:31:41;21.10;57.30
7900;DHT22;3995;50.856;4.404;2023-07-13T04:34:08;21.10;57.50
7900;DHT22;3995;50.856;4.404;2023-07-13T04:36:36;21.00;57.40
7900;DHT22;3995;50.856;4.404;2023-07-13T04:39:03;21.00;57.50
7900;DHT22;3995;50.856;4.404;2023-07-13T04:41:32;21.00;57.50
7900;DHT22;3995;50.856;4.404;2023-07-13T04:43:59;21.00;57.60
7900;DHT22;3995;50.856;4.404;2023-07-13T04:46:28;21.00;57.70
7900;DHT22;3995;50.856;4.404;2023-07-13T04:48:58;21.00;57.80
7900;DHT22;3995;50.856;4.404;2023-07-13T04:51:26;20.90;57.80
7900;DHT22;3995;50.856;4.404;2023-07-13T04:53:54;20.90;57.80
7900;DHT22;3995;50.856;4.404;2023-07-13T04:56:22;20.90;57.90
7900;DHT22;3995;50.856;4.404;2023-07-13T04:58:49;20.90;57.90
7900;DHT22;3995;50.856;4.404;2023-07-13T05:01:17;20.90;58.00
7900;DHT22;3995;50.856;4.404;2023-07-13T05:03:45;20.90;58.10
7900;DHT22;3995;50.856;4.404;2023-07-13T05:06:15;20.90;58.20
7900;DHT22;3995;50.856;4.404;2023-07-13T05:08:42;20.90;58.20
7900;DHT22;3995;50.856;4.404;2023-07-13T05:11:10;20.90;58.20
7900;DHT22;3995;50.856;4.404;2023-07-13T05:13:40;20.80;58.20
7900;DHT22;3995;50.856;4.404;2023-07-13T05:16:08;20.80;58.30
7900;DHT22;3995;50.856;4.404;2023-07-13T05:18:36;20.80;58.30
7900;DHT22;3995;50.856;4.404;2023-07-13T05:21:05;20.90;58.50
7900;DHT22;3995;50.856;4.404;2023-07-13T05:23:35;20.90;58.50
7900;DHT22;3995;50.856;4.404;2023-07-13T05:26:04;20.90;58.40
7900;DHT22;3995;50.856;4.404;2023-07-13T05:28:31;21.00;58.40
7900;DHT22;3995;50.856;4.404;2023-07-13T05:30:59;21.00;58.40
7900;DHT22;3995;50.856;4.404;2023-07-13T05:33:26;21.00;58.40
7900;DHT22;3995;50.856;4.404;2023-07-13T05:35:54;21.00;58.90
7900;DHT22;3995;50.856;4.404;2023-07-13T05:38:21;21.00;58.30
7900;DHT22;3995;50.856;4.404;2023-07-13T05:40:52;21.00;58.40
7900;DHT22;3995;50.856;4.404;2023-07-13T05:43:20;21.00;58.40
7900;DHT22;3995;50.856;4.404;2023-07-13T05:45:48;21.00;58.40
7900;DHT22;3995;50.856;4.404;2023-07-13T05:48:15;21.00;58.30
7900;DHT22;3995;50.856;4.404;2023-07-13T05:50:42;21.00;58.40
7900;DHT22;3995;50.856;4.404;2023-07-13T05:53:09;21.00;58.50
7900;DHT22;3995;50.856;4.404;2023-07-13T05:55:41;21.00;58.60
7900;DHT22;3995;50.856;4.404;2023-07-13T05:58:11;21.00;58.50
7900;DHT22;3995;50.856;4.404;2023-07-13T06:00:39;21.00;58.50
7900;DHT22;3995;50.856;4.404;2023-07-13T06:03:06;20.90;58.60
7900;DHT22;3995;50.856;4.404;2023-07-13T06:05:35;20.90;58.70
7900;DHT22;3995;50.856;4.404;2023-07-13T06:08:04;20.90;58.80
7900;DHT22;3995;50.856;4.404;2023-07-13T06:10:33;20.90;58.90
7900;DHT22;3995;50.856;4.404;2023-07-13T06:13:00;20.90;58.90
7900;DHT22;3995;50.856;4.404;2023-07-13T06:15:29;20.90;58.80
7900;DHT22;3995;50.856;4.404;2023-07-13T06:17:56;20.90;58.90
7900;DHT22;3995;50.856;4.404;2023-07-13T06:20:24;20.90;59.00
7900;DHT22;3995;50.856;4.404;2023-07-13T06:22:51;20.90;59.00
7900;DHT22;3995;50.856;4.404;2023-07-13T06:25:19;20.90;59.10
7900;DHT22;3995;50.856;4.404;2023-07-13T06:27:46;20.90;59.10
7900;DHT22;3995;50.856;4.404;2023-07-13T06:30:14;20.90;59.10
7900;DHT22;3995;50.856;4.404;2023-07-13T06:32:43;20.90;59.20
7900;DHT22;3995;50.856;4.404;2023-07-13T06:35:10;20.90;59.20
7900;DHT22;3995;50.856;4.404;2023-07-13T06:37:39;20.90;59.20
7900;DHT22;3995;50.856;4.404;2023-07-13T06:40:08;20.90;59.40
7900;DHT22;3995;50.856;4.404;2023-07-13T06:42:35;20.90;59.40
7900;DHT22;3995;50.856;4.404;2023-07-13T06:45:05;20.90;59.40
7900;DHT22;3995;50.856;4.404;2023-07-13T06:47:32;21.00;59.50
7900;DHT22;3995;50.856;4.404;2023-07-13T06:50:01;21.00;59.40
7900;DHT22;3995;50.856;4.404;2023-07-13T06:52:29;21.20;59.50
7900;DHT22;3995;50.856;4.404;2023-07-13T06:54:56;21.20;59.30
7900;DHT22;3995;50.856;4.404;2023-07-13T06:57:23;21.20;59.10
7900;DHT22;3995;50.856;4.404;2023-07-13T06:59:52;21.30;59.20
7900;DHT22;3995;50.856;4.404;2023-07-13T07:02:19;21.30;59.00
7900;DHT22;3995;50.856;4.404;2023-07-13T07:04:47;21.40;59.00
7900;DHT22;3995;50.856;4.404;2023-07-13T07:07:17;21.40;58.70
7900;DHT22;3995;50.856;4.404;2023-07-13T07:09:44;21.50;58.70
7900;DHT22;3995;50.856;4.404;2023-07-13T07:12:12;21.50;58.60
7900;DHT22;3995;50.856;4.404;2023-07-13T07:14:39;21.50;58.50
7900;DHT22;3995;50.856;4.404;2023-07-13T07:17:07;21.60;58.50
7900;DHT22;3995;50.856;4.404;2023-07-13T07:19:35;21.60;58.40
7900;DHT22;3995;50.856;4.404;2023-07-13T07:22:03;21.60;58.30
7900;DHT22;3995;50.856;4.404;2023-07-13T07:24:33;21.70;58.50
7900;DHT22;3995;50.856;4.404;2023-07-13T07:27:00;21.70;58.30
7900;DHT22;3995;50.856;4.404;2023-07-13T07:29:28;21.70;58.20
7900;DHT22;3995;50.856;4.404;2023-07-13T07:31:55;21.70;58.10
7900;DHT22;3995;50.856;4.404;2023-07-13T07:34:23;21.80;58.20
7900;DHT22;3995;50.856;4.404;2023-07-13T07:36:50;21.80;58.10
7900;DHT22;3995;50.856;4.404;2023-07-13T07:39:18;21.80;58.10
7900;DHT22;3995;50.856;4.404;2023-07-13T07:41:47;21.80;58.00
7900;DHT22;3995;50.856;4.404;2023-07-13T07:44:15;21.80;57.80
7900;DHT22;3995;50.856;4.404;2023-07-13T07:46:42;21.90;57.90
7900;DHT22;3995;50.856;4.404;2023-07-13T07:49:10;21.90;57.80
7900;DHT22;3995;50.856;4.404;2023-07-13T07:51:37;21.90;57.90
7900;DHT22;3995;50.856;4.404;2023-07-13T07:54:05;21.90;57.80
7900;DHT22;3995;50.856;4.404;2023-07-13T07:56:33;22.00;57.50
7900;DHT22;3995;50.856;4.404;2023-07-13T07:59:02;22.00;57.50
7900;DHT22;3995;50.856;4.404;2023-07-13T08:01:30;22.00;57.50
7900;DHT22;3995;50.856;4.404;2023-07-13T08:03:57;22.00;57.70
7900;DHT22;3995;50.856;4.404;2023-07-13T08:06:25;22.00;57.60
7900;DHT22;3995;50.856;4.404;2023-07-13T08:08:52;22.10;58.10
7900;DHT22;3995;50.856;4.404;2023-07-13T08:11:21;22.10;57.60
7900;DHT22;3995;50.856;4.404;2023-07-13T08:13:49;22.20;57.50
7900;DHT22;3995;50.856;4.404;2023-07-13T08:16:18;22.20;57.20
7900;DHT22;3995;50.856;4.404;2023-07-13T08:18:45;22.30;57.10
7900;DHT22;3995;50.856;4.404;2023-07-13T08:21:12;22.20;57.00
7900;DHT22;3995;50.856;4.404;2023-07-13T08:23:40;22.30;56.90
7900;DHT22;3995;50.856;4.404;2023-07-13T08:26:08;22.30;56.90
7900;DHT22;3995;50.856;4.404;2023-07-13T08:28:35;22.30;57.00
7900;DHT22;3995;50.856;4.404;2023-07-13T08:31:04;22.30;56.90
7900;DHT22;3995;50.856;4.404;2023-07-13T08:33:34;22.40;57.00
7900;DHT22;3995;50.856;4.404;2023-07-13T08:36:02;22.40;56.70
7900;DHT22;3995;50.856;4.404;2023-07-13T08:38:30;22.40;56.60
7900;DHT22;3995;50.856;4.404;2023-07-13T08:40:58;22.40;56.60
7900;DHT22;3995;50.856;4.404;2023-07-13T08:43:27;22.50;56.60
7900;DHT22;3995;50.856;4.404;2023-07-13T08:46:01;22.50;56.40
7900;DHT22;3995;50.856;4.404;2023-07-13T08:48:32;22.50;56.30
7900;DHT22;3995;50.856;4.404;2023-07-13T08:51:09;22.50;56.00
7900;DHT22;3995;50.856;4.404;2023-07-13T08:53:43;22.50;55.90
7900;DHT22;3995;50.856;4.404;2023-07-13T08:56:17;22.50;55.80
7900;DHT22;3995;50.856;4.404;2023-07-13T08:58:48;22.50;55.70
7900;DHT22;3995;50.856;4.404;2023-07-13T09:01:21;22.50;55.70
7900;DHT22;3995;50.856;4.404;2023-07-13T09:03:58;22.60;55.70
7900;DHT22;3995;50.856;4.404;2023-07-13T09:06:34;22.60;56.40
7900;DHT22;3995;50.856;4.404;2023-07-13T09:09:13;22.60;56.20
7900;DHT22;3995;50.856;4.404;2023-07-13T09:11:49;22.70;55.60
7900;DHT22;3995;50.856;4.404;2023-07-13T09:14:33;22.70;55.40
7900;DHT22;3995;50.856;4.404;2023-07-13T09:17:03;22.70;55.30
7900;DHT22;3995;50.856;4.404;2023-07-13T09:19:33;22.70;55.10
7900;DHT22;3995;50.856;4.404;2023-07-13T09:22:05;22.70;55.10
7900;DHT22;3995;50.856;4.404;2023-07-13T09:24:38;22.70;54.60
7900;DHT22;3995;50.856;4.404;2023-07-13T09:27:17;22.70;54.60
7900;DHT22;3995;50.856;4.404;2023-07-13T09:29:48;22.80;54.80
7900;DHT22;3995;50.856;4.404;2023-07-13T09:32:18;22.80;54.90
7900;DHT22;3995;50.856;4.404;2023-07-13T09:34:52;22.90;54.80
7900;DHT22;3995;50.856;4.404;2023-07-13T09:37:28;22.90;54.60
7900;DHT22;3995;50.856;4.404;2023-07-13T09:39:59;22.90;54.60
7900;DHT22;3995;50.856;4.404;2023-07-13T09:42:31;22.90;54.90
7900;DHT22;3995;50.856;4.404;2023-07-13T09:45:01;22.90;54.80
7900;DHT22;3995;50.856;4.404;2023-07-13T09:47:31;23.00;55.10
7900;DHT22;3995;50.856;4.404;2023-07-13T09:50:00;23.00;54.60
7900;DHT22;3995;50.856;4.404;2023-07-13T09:52:40;23.00;54.20
7900;DHT22;3995;50.856;4.404;2023-07-13T09:55:24;23.10;54.10
7900;DHT22;3995;50.856;4.404;2023-07-13T09:57:51;23.10;54.30
7900;DHT22;3995;50.856;4.404;2023-07-13T10:00:22;23.10;54.50
7900;DHT22;3995;50.856;4.404;2023-07-13T10:03:03;23.10;54.50
7900;DHT22;3995;50.856;4.404;2023-07-13T10:05:41;23.20;54.20
7900;DHT22;3995;50.856;4.404;2023-07-13T10:08:23;23.20;54.00
7900;DHT22;3995;50.856;4.404;2023-07-13T10:10:57;23.20;53.90
7900;DHT22;3995;50.856;4.404;2023-07-13T10:13:32;23.20;54.00
7900;DHT22;3995;50.856;4.404;2023-07-13T10:16:03;23.30;53.90
7900;DHT22;3995;50.856;4.404;2023-07-13T10:18:41;23.20;53.10
7900;DHT22;3995;50.856;4.404;2023-07-13T10:21:15;23.30;52.40
7900;DHT22;3995;50.856;4.404;2023-07-13T10:23:48;23.30;52.30
7900;DHT22;3995;50.856;4.404;2023-07-13T10:26:21;23.30;52.60
7900;DHT22;3995;50.856;4.404;2023-07-13T10:28:52;23.30;52.60
7900;DHT22;3995;50.856;4.404;2023-07-13T10:31:21;23.30;52.70
7900;DHT22;3995;50.856;4.404;2023-07-13T10:33:49;23.40;53.20
7900;DHT22;3995;50.856;4.404;2023-07-13T10:36:23;23.40;53.00
7900;DHT22;3995;50.856;4.404;2023-07-13T10:38:59;23.50;53.50
7900;DHT22;3995;50.856;4.404;2023-07-13T10:41:32;23.50;53.00
7900;DHT22;3995;50.856;4.404;2023-07-13T10:44:01;23.60;52.80
7900;DHT22;3995;50.856;4.404;2023-07-13T10:46:29;23.60;52.80
7900;DHT22;3995;50.856;4.404;2023-07-13T10:49:01;23.60;52.80
7900;DHT22;3995;50.856;4.404;2023-07-13T10:51:30;23.60;52.00
7900;DHT22;3995;50.856;4.404;2023-07-13T10:54:20;23.60;51.70
7900;DHT22;3995;50.856;4.404;2023-07-13T10:56:52;23.60;51.40
7900;DHT22;3995;50.856;4.404;2023-07-13T10:59:25;23.50;51.70
7900;DHT22;3995;50.856;4.404;2023-07-13T11:01:56;23.60;52.30
7900;DHT22;3995;50.856;4.404;2023-07-13T11:04:26;23.60;52.40
7900;DHT22;3995;50.856;4.404;2023-07-13T11:06:57;23.60;52.60
7900;DHT22;3995;50.856;4.404;2023-07-13T11:09:50;23.60;52.30
7900;DHT22;3995;50.856;4.404;2023-07-13T11:12:49;23.70;51.70
7900;DHT22;3995;50.856;4.404;2023-07-13T11:15:30;23.70;51.80
7900;DHT22;3995;50.856;4.404;2023-07-13T11:17:57;23.70;52.10
7900;DHT22;3995;50.856;4.404;2023-07-13T11:20:34;23.70;51.70
7900;DHT22;3995;50.856;4.404;2023-07-13T11:23:26;23.90;51.70
7900;DHT22;3995;50.856;4.404;2023-07-13T11:25:56;23.90;51.30
7900;DHT22;3995;50.856;4.404;2023-07-13T11:28:25;23.90;51.40
7900;DHT22;3995;50.856;4.404;2023-07-13T11:31:13;23.90;51.60
7900;DHT22;3995;50.856;4.404;2023-07-13T11:33:53;24.10;51.60
7900;DHT22;3995;50.856;4.404;2023-07-13T11:36:27;24.10;51.40
7900;DHT22;3995;50.856;4.404;2023-07-13T11:39:01;24.10;51.70
7900;DHT22;3995;50.856;4.404;2023-07-13T11:41:32;24.10;51.10
7900;DHT22;3995;50.856;4.404;2023-07-13T11:44:12;24.20;51.00
7900;DHT22;3995;50.856;4.404;2023-07-13T11:46:45;24.20;51.20
7900;DHT22;3995;50.856;4.404;2023-07-13T11:49:16;24.20;51.30
7900;DHT22;3995;50.856;4.404;2023-07-13T11:51:44;24.10;51.60
7900;DHT22;3995;50.856;4.404;2023-07-13T11:54:21;24.10;51.30
7900;DHT22;3995;50.856;4.404;2023-07-13T11:56:50;24.10;51.00
7900;DHT22;3995;50.856;4.404;2023-07-13T11:59:18;24.00;50.90
7900;DHT22;3995;50.856;4.404;2023-07-13T12:01:50;24.00;50.60
7900;DHT22;3995;50.856;4.404;2023-07-13T12:04:22;24.00;50.30
7900;DHT22;3995;50.856;4.404;2023-07-13T12:06:58;23.90;50.50
7900;DHT22;3995;50.856;4.404;2023-07-13T12:09:33;23.90;50.60
7900;DHT22;3995;50.856;4.404;2023-07-13T12:12:08;23.90;50.70
7900;DHT22;3995;50.856;4.404;2023-07-13T12:14:38;23.90;50.90
7900;DHT22;3995;50.856;4.404;2023-07-13T12:17:11;23.90;50.80
7900;DHT22;3995;50.856;4.404;2023-07-13T12:19:41;23.90;50.50
7900;DHT22;3995;50.856;4.404;2023-07-13T12:22:10;23.90;50.80
7900;DHT22;3995;50.856;4.404;2023-07-13T12:24:40;23.90;50.80
7900;DHT22;3995;50.856;4.404;2023-07-13T12:27:19;23.90;50.80
7900;DHT22;3995;50.856;4.404;2023-07-13T12:29:52;23.90;51.00
7900;DHT22;3995;50.856;4.404;2023-07-13T12:32:26;23.90;50.90
7900;DHT22;3995;50.856;4.404;2023-07-13T12:35:03;23.90;50.50
7900;DHT22;3995;50.856;4.404;2023-07-13T12:37:34;23.80;50.80
7900;DHT22;3995;50.856;4.404;2023-07-13T12:40:04;23.80;51.90
7900;DHT22;3995;50.856;4.404;2023-07-13T12:42:38;23.70;53.40
7900;DHT22;3995;50.856;4.404;2023-07-13T12:45:18;23.70;55.10
7900;DHT22;3995;50.856;4.404;2023-07-13T12:47:49;23.70;55.90
7900;DHT22;3995;50.856;4.404;2023-07-13T12:50:20;23.60;56.30
7900;DHT22;3995;50.856;4.404;2023-07-13T12:52:51;23.50;56.80
7900;DHT22;3995;50.856;4.404;2023-07-13T12:55:20;23.50;56.90
7900;DHT22;3995;50.856;4.404;2023-07-13T12:57:54;23.50;57.50
7900;DHT22;3995;50.856;4.404;2023-07-13T13:00:24;23.40;58.20
7900;DHT22;3995;50.856;4.404;2023-07-13T13:02:54;23.40;58.70
7900;DHT22;3995;50.856;4.404;2023-07-13T13:05:25;23.40;59.20
7900;DHT22;3995;50.856;4.404;2023-07-13T13:07:54;23.40;59.60
7900;DHT22;3995;50.856;4.404;2023-07-13T13:10:21;23.30;59.90
7900;DHT22;3995;50.856;4.404;2023-07-13T13:12:51;23.30;59.70
7900;DHT22;3995;50.856;4.404;2023-07-13T13:15:19;23.30;59.80
7900;DHT22;3995;50.856;4.404;2023-07-13T13:17:48;23.30;59.40
7900;DHT22;3995;50.856;4.404;2023-07-13T13:20:17;23.40;59.70
7900;DHT22;3995;50.856;4.404;2023-07-13T13:22:45;23.50;59.30
7900;DHT22;3995;50.856;4.404;2023-07-13T13:25:13;23.50;58.60
7900;DHT22;3995;50.856;4.404;2023-07-13T13:27:42;23.60;58.60
7900;DHT22;3995;50.856;4.404;2023-07-13T13:30:13;23.60;57.50
7900;DHT22;3995;50.856;4.404;2023-07-13T13:32:42;23.50;56.80
7900;DHT22;3995;50.856;4.404;2023-07-13T13:35:13;23.50;56.90
7900;DHT22;3995;50.856;4.404;2023-07-13T13:37:42;23.60;56.30
7900;DHT22;3995;50.856;4.404;2023-07-13T13:40:16;23.60;56.60
7900;DHT22;3995;50.856;4.404;2023-07-13T13:42:44;23.70;56.00
7900;DHT22;3995;50.856;4.404;2023-07-13T13:45:13;23.70;56.20
7900;DHT22;3995;50.856;4.404;2023-07-13T13:47:44;23.80;56.00
7900;DHT22;3995;50.856;4.404;2023-07-13T13:50:12;23.90;55.90
7900;DHT22;3995;50.856;4.404;2023-07-13T13:52:41;24.10;55.10
7900;DHT22;3995;50.856;4.404;2023-07-13T13:55:12;24.20;55.10
7900;DHT22;3995;50.856;4.404;2023-07-13T13:57:40;24.40;54.90
7900;DHT22;3995;50.856;4.404;2023-07-13T14:00:09;24.50;54.60
7900;DHT22;3995;50.856;4.404;2023-07-13T14:02:44;24.50;54.50
7900;DHT22;3995;50.856;4.404;2023-07-13T14:05:14;24.60;53.90
7900;DHT22;3995;50.856;4.404;2023-07-13T14:07:42;24.50;53.90
7900;DHT22;3995;50.856;4.404;2023-07-13T14:10:13;24.50;53.20
7900;DHT22;3995;50.856;4.404;2023-07-13T14:12:41;24.50;53.20
7900;DHT22;3995;50.856;4.404;2023-07-13T14:15:15;24.50;53.00
7900;DHT22;3995;50.856;4.404;2023-07-13T14:17:46;24.60;52.80
7900;DHT22;3995;50.856;4.404;2023-07-13T14:20:16;24.60;53.10
7900;DHT22;3995;50.856;4.404;2023-07-13T14:22:44;24.60;53.10
7900;DHT22;3995;50.856;4.404;2023-07-13T14:25:13;24.60;53.30
7900;DHT22;3995;50.856;4.404;2023-07-13T14:27:42;24.70;53.00
7900;DHT22;3995;50.856;4.404;2023-07-13T14:30:13;24.70;53.00
7900;DHT22;3995;50.856;4.404;2023-07-13T14:32:41;24.70;53.10
7900;DHT22;3995;50.856;4.404;2023-07-13T14:35:12;24.70;53.30
7900;DHT22;3995;50.856;4.404;2023-07-13T14:37:40;24.70;53.20
7900;DHT22;3995;50.856;4.404;2023-07-13T14:40:13;24.60;52.50
7900;DHT22;3995;50.856;4.404;2023-07-13T14:42:40;24.60;52.60
7900;DHT22;3995;50.856;4.404;2023-07-13T14:45:13;24.60;52.70
7900;DHT22;3995;50.856;4.404;2023-07-13T14:47:41;24.60;52.50
7900;DHT22;3995;50.856;4.404;2023-07-13T14:50:27;24.60;52.80
7900;DHT22;3995;50.856;4.404;2023-07-13T14:52:57;24.70;52.60
7900;DHT22;3995;50.856;4.404;2023-07-13T14:55:24;24.70;52.90
7900;DHT22;3995;50.856;4.404;2023-07-13T14:57:52;24.80;52.80
7900;DHT22;3995;50.856;4.404;2023-07-13T15:00:21;24.90;52.30
7900;DHT22;3995;50.856;4.404;2023-07-13T15:02:51;25.00;52.40
7900;DHT22;3995;50.856;4.404;2023-07-13T15:05:22;25.20;52.40
7900;DHT22;3995;50.856;4.404;2023-07-13T15:07:52;25.30;52.50
7900;DHT22;3995;50.856;4.404;2023-07-13T15:10:22;25.40;52.60
7900;DHT22;3995;50.856;4.404;2023-07-13T15:12:51;25.50;51.90
7900;DHT22;3995;50.856;4.404;2023-07-13T15:15:19;25.50;51.70
7900;DHT22;3995;50.856;4.404;2023-07-13T15:17:48;25.60;51.60
7900;DHT22;3995;50.856;4.404;2023-07-13T15:20:25;25.70;51.60
7900;DHT22;3995;50.856;4.404;2023-07-13T15:22:55;25.70;50.70
7900;DHT22;3995;50.856;4.404;2023-07-13T15:25:24;25.70;50.10
7900;DHT22;3995;50.856;4.404;2023-07-13T15:27:53;25.80;49.70
7900;DHT22;3995;50.856;4.404;2023-07-13T15:30:21;25.80;49.30
7900;DHT22;3995;50.856;4.404;2023-07-13T15:32:49;25.90;49.60
7900;DHT22;3995;50.856;4.404;2023-07-13T15:35:18;26.00;49.90
7900;DHT22;3995;50.856;4.404;2023-07-13T15:37:46;26.00;49.50
7900;DHT22;3995;50.856;4.404;2023-07-13T15:40:16;26.00;48.30
7900;DHT22;3995;50.856;4.404;2023-07-13T15:42:47;26.00;48.10
7900;DHT22;3995;50.856;4.404;2023-07-13T15:45:17;26.10;48.00
7900;DHT22;3995;50.856;4.404;2023-07-13T15:47:45;26.10;48.50
7900;DHT22;3995;50.856;4.404;2023-07-13T15:50:14;26.10;49.30
7900;DHT22;3995;50.856;4.404;2023-07-13T15:52:43;26.10;49.10
7900;DHT22;3995;50.856;4.404;2023-07-13T15:55:12;26.00;49.10
7900;DHT22;3995;50.856;4.404;2023-07-13T15:57:44;26.00;49.00
7900;DHT22;3995;50.856;4.404;2023-07-13T16:00:18;26.00;49.70
7900;DHT22;3995;50.856;4.404;2023-07-13T16:02:47;25.90;49.40
7900;DHT22;3995;50.856;4.404;2023-07-13T16:05:16;25.90;48.60
7900;DHT22;3995;50.856;4.404;2023-07-13T16:07:45;25.80;48.40
7900;DHT22;3995;50.856;4.404;2023-07-13T16:10:15;25.80;48.60
7900;DHT22;3995;50.856;4.404;2023-07-13T16:12:44;25.80;48.20
7900;DHT22;3995;50.856;4.404;2023-07-13T16:15:17;25.80;48.00
7900;DHT22;3995;50.856;4.404;2023-07-13T16:17:45;25.80;47.20
7900;DHT22;3995;50.856;4.404;2023-07-13T16:20:14;25.80;46.60